Time;durP1;ratioP1;P1;durP2;ratioP2;P2;SDS_P1;SDS_P2;PMS_P1;PMS_P2;Temp;Humidity;BMP_temperature;BMP_pressure;BME280_temperature;BME280_humidity;BME280_pressure;Samples;Min_cycle;Max_cycle;Signal;HPM_P1;HPM_P2
2023/09/09 00:00:26;;;;;;;19.00;17.17;;;;;;;;;;5012737;28;20014;-55
2023/09/09 00:02:51;;;;;;;57.83;53.80;;;;;;;;;;5014685;28;20543;-55
2023/09/09 00:05:16;;;;;;;31.73;29.40;;;;;;;;;;5018089;28;20017;-55
2023/09/09 00:07:41;;;;;;;42.85;39.53;;;;;;;;;;5016907;28;20792;-57
2023/09/09 00:10:07;;;;;;;32.97;30.40;;;;;;;;;;5014794;28;20072;-55
2023/09/09 00:12:32;;;;;;;18.80;17.00;;;;;;;;;;5014997;28;20046;-56
2023/09/09 00:14:57;;;;;;;91.83;85.13;;;;;;;;;;5015195;28;20473;-55
2023/09/09 00:17:22;;;;;;;84.65;78.43;;;;;;;;;;5013419;28;20030;-55
2023/09/09 00:19:49;;;;;;;32.60;30.07;;;;;;;;;;5023601;28;20029;-56
2023/09/09 00:22:17;;;;;;;64.57;59.42;;;;;;;;;;5019806;28;20488;-55
2023/09/09 00:24:42;;;;;;;32.42;29.90;;;;;;;;;;5021189;28;20022;-56
2023/09/09 00:27:07;;;;;;;79.53;73.83;;;;;;;;;;5013801;28;20033;-56
2023/09/09 00:29:33;;;;;;;79.63;73.95;;;;;;;;;;5013982;28;20551;-56
2023/09/09 00:31:58;;;;;;;32.85;30.20;;;;;;;;;;5014466;28;20499;-56
2023/09/09 00:34:24;;;;;;;39.37;36.53;;;;;;;;;;5017822;28;20124;-56
2023/09/09 00:36:49;;;;;;;42.50;39.35;;;;;;;;;;5018083;28;20152;-56
2023/09/09 00:39:14;;;;;;;77.40;72.05;;;;;;;;;;5018643;28;20040;-56
2023/09/09 00:41:39;;;;;;;51.83;47.70;;;;;;;;;;5015332;28;20104;-56
2023/09/09 00:44:04;;;;;;;15.73;14.03;;;;;;;;;;5013463;28;20026;-55
2023/09/09 00:46:30;;;;;;;21.58;19.73;;;;;;;;;;5020026;28;20038;-55
2023/09/09 00:48:55;;;;;;;36.15;33.13;;;;;;;;;;5012676;28;20080;-55
2023/09/09 00:51:20;;;;;;;68.90;63.43;;;;;;;;;;5029091;28;20441;-55
2023/09/09 00:53:45;;;;;;;41.40;38.23;;;;;;;;;;5014256;28;20516;-55
2023/09/09 00:56:11;;;;;;;92.97;86.78;;;;;;;;;;5015519;28;20022;-56
2023/09/09 00:58:36;;;;;;;83.80;77.90;;;;;;;;;;5025558;28;20029;-55
2023/09/09 01:01:05;;;;;;;88.70;82.90;;;;;;;;;;5022700;28;20979;-56
2023/09/09 01:03:30;;;;;;;31.10;28.60;;;;;;;;;;5016477;28;20026;-56
2023/09/09 01:05:56;;;;;;;112.03;104.53;;;;;;;;;;5017924;28;20033;-56
2023/09/09 01:08:28;;;;;;;23.92;21.83;;;;;;;;;;5012780;28;20382;-56
2023/09/09 01:10:53;;;;;;;38.50;35.67;;;;;;;;;;5024201;28;20013;-56
2023/09/09 01:13:19;;;;;;;73.97;68.82;;;;;;;;;;5022073;28;20028;-56
2023/09/09 01:15:44;;;;;;;20.95;19.17;;;;;;;;;;5025898;28;20033;-56
2023/09/09 01:18:09;;;;;;;61.87;57.33;;;;;;;;;;5025725;28;20026;-56
2023/09/09 01:20:36;;;;;;;20.17;18.23;;;;;;;;;;5014103;28;20034;-57
2023/09/09 01:23:01;;;;;;;59.72;55.50;;;;;;;;;;5025447;28;20034;-56
2023/09/09 01:25:26;;;;;;;18.95;17.27;;;;;;;;;;5014888;28;20022;-56
2023/09/09 01:27:51;;;;;;;96.03;88.63;;;;;;;;;;5012094;28;20421;-57
2023/09/09 01:30:16;;;;;;;48.63;45.00;;;;;;;;;;5018238;28;20033;-55
2023/09/09 01:32:42;;;;;;;26.47;24.53;;;;;;;;;;5014024;28;20061;-56
2023/09/09 01:35:08;;;;;;;83.00;77.37;;;;;;;;;;5013889;28;20022;-55
2023/09/09 01:37:33;;;;;;;118.75;110.30;;;;;;;;;;5015853;28;20542;-56
2023/09/09 01:40:04;;;;;;;101.03;93.75;;;;;;;;;;5022290;28;20051;-55
2023/09/09 01:42:29;;;;;;;56.53;52.17;;;;;;;;;;5015674;28;20057;-56
2023/09/09 01:44:55;;;;;;;43.87;40.80;;;;;;;;;;5021599;28;20505;-56
2023/09/09 01:47:20;;;;;;;69.28;63.90;;;;;;;;;;5019694;28;20457;-55
2023/09/09 01:49:45;;;;;;;75.68;70.50;;;;;;;;;;5017327;28;20037;-56
2023/09/09 01:52:10;;;;;;;86.93;80.30;;;;;;;;;;5023472;28;20041;-56
2023/09/09 01:54:36;;;;;;;104.68;97.85;;;;;;;;;;5020199;28;20025;-56
2023/09/09 01:57:02;;;;;;;47.77;43.93;;;;;;;;;;5020209;28;20036;-56
2023/09/09 01:59:27;;;;;;;17.50;15.90;;;;;;;;;;5017063;28;20105;-56
2023/09/09 02:01:52;;;;;;;61.67;57.07;;;;;;;;;;5021463;28;20105;-56
2023/09/09 02:04:17;;;;;;;56.30;52.15;;;;;;;;;;5014694;28;20072;-57
2023/09/09 02:06:44;;;;;;;47.17;43.40;;;;;;;;;;5013326;28;20113;-57
2023/09/09 02:09:09;;;;;;;40.20;36.97;;;;;;;;;;5017675;28;20033;-56
2023/09/09 02:11:34;;;;;;;54.55;49.97;;;;;;;;;;5026098;28;20025;-55
2023/09/09 02:14:00;;;;;;;14.25;12.93;;;;;;;;;;5012752;28;20109;-56
2023/09/09 02:16:25;;;;;;;82.80;77.40;;;;;;;;;;5023792;28;20026;-56
2023/09/09 02:18:50;;;;;;;100.03;92.68;;;;;;;;;;5021325;28;20025;-56
2023/09/09 02:21:15;;;;;;;36.28;33.58;;;;;;;;;;5021108;28;20018;-56
2023/09/09 02:23:41;;;;;;;23.45;21.40;;;;;;;;;;5016874;28;22224;-56
2023/09/09 02:26:08;;;;;;;14.57;13.02;;;;;;;;;;5016820;28;20026;-56
2023/09/09 02:28:33;;;;;;;24.90;22.95;;;;;;;;;;5020824;28;20030;-57
2023/09/09 02:31:00;;;;;;;33.97;30.97;;;;;;;;;;5018513;28;20412;-56
2023/09/09 02:33:25;;;;;;;54.30;50.58;;;;;;;;;;5017607;28;21050;-56
2023/09/09 02:35:50;;;;;;;118.85;110.68;;;;;;;;;;5012106;28;20026;-56
2023/09/09 02:38:15;;;;;;;65.10;60.50;;;;;;;;;;5013111;28;20021;-56
2023/09/09 02:40:40;;;;;;;132.45;123.72;;;;;;;;;;5019461;28;20572;-57
2023/09/09 02:43:05;;;;;;;87.03;80.40;;;;;;;;;;5023137;28;20061;-57
2023/09/09 02:45:30;;;;;;;88.40;82.33;;;;;;;;;;5010790;28;20025;-57
2023/09/09 02:47:56;;;;;;;94.00;87.80;;;;;;;;;;5013196;28;20088;-56
2023/09/09 02:50:21;;;;;;;81.27;75.80;;;;;;;;;;5013162;28;20028;-57
2023/09/09 02:52:49;;;;;;;72.47;67.83;;;;;;;;;;5015826;28;20440;-57
2023/09/09 02:55:15;;;;;;;31.77;29.30;;;;;;;;;;5019674;28;20021;-56
2023/09/09 02:57:40;;;;;;;23.97;22.13;;;;;;;;;;5022691;28;20022;-56
2023/09/09 03:00:08;;;;;;;28.65;26.45;;;;;;;;;;5023296;28;20467;-57
2023/09/09 03:02:33;;;;;;;57.03;52.97;;;;;;;;;;5018672;28;20041;-57
2023/09/09 03:04:59;;;;;;;39.03;35.80;;;;;;;;;;5014734;28;20097;-56
2023/09/09 03:07:24;;;;;;;107.80;100.83;;;;;;;;;;5028302;28;20219;-57
2023/09/09 03:09:49;;;;;;;27.63;25.58;;;;;;;;;;5028749;28;20477;-56
2023/09/09 03:12:20;;;;;;;48.67;45.23;;;;;;;;;;5029943;28;20470;-57
2023/09/09 03:14:47;;;;;;;30.73;28.23;;;;;;;;;;5019000;28;20042;-57
2023/09/09 03:17:12;;;;;;;86.57;80.90;;;;;;;;;;5020344;28;20492;-57
2023/09/09 03:19:37;;;;;;;19.27;17.67;;;;;;;;;;5020925;28;20062;-56
2023/09/09 03:22:02;;;;;;;37.75;34.90;;;;;;;;;;5014278;28;20033;-57
2023/09/09 03:24:27;;;;;;;22.70;20.87;;;;;;;;;;5017718;28;20014;-57
2023/09/09 03:26:53;;;;;;;37.40;34.50;;;;;;;;;;5022518;28;20491;-56
2023/09/09 03:29:18;;;;;;;107.63;100.27;;;;;;;;;;5025748;28;20067;-57
2023/09/09 03:31:43;;;;;;;37.47;34.53;;;;;;;;;;5027417;28;20087;-57
2023/09/09 03:34:08;;;;;;;60.35;56.25;;;;;;;;;;5014186;28;20393;-56
2023/09/09 03:36:33;;;;;;;61.20;57.03;;;;;;;;;;5022375;28;20087;-57
2023/09/09 03:39:03;;;;;;;16.13;14.63;;;;;;;;;;5022967;28;20041;-56
2023/09/09 03:41:28;;;;;;;58.58;54.35;;;;;;;;;;5020876;28;20014;-57
2023/09/09 03:43:53;;;;;;;69.10;63.97;;;;;;;;;;5018351;28;20021;-56
2023/09/09 03:46:18;;;;;;;35.50;32.72;;;;;;;;;;5018015;28;20022;-56
2023/09/09 03:48:43;;;;;;;78.60;72.97;;;;;;;;;;5019025;28;20028;-56
2023/09/09 03:51:09;;;;;;;33.70;31.27;;;;;;;;;;5015942;28;20457;-57
2023/09/09 03:53:34;;;;;;;62.60;58.13;;;;;;;;;;5024423;28;20497;-56
2023/09/09 03:56:00;;;;;;;24.50;22.65;;;;;;;;;;5022631;28;20048;-56
2023/09/09 03:58:26;;;;;;;30.48;28.08;;;;;;;;;;5022596;28;20026;-56
2023/09/09 04:01:02;;;;;;;23.10;21.30;;;;;;;;;;5019544;28;20108;-55
2023/09/09 04:03:28;;;;;;;18.70;16.92;;;;;;;;;;5027081;28;20052;-57
2023/09/09 04:05:53;;;;;;;100.40;93.63;;;;;;;;;;5023580;28;20128;-57
2023/09/09 04:08:18;;;;;;;55.93;51.70;;;;;;;;;;5028113;28;20097;-56
2023/09/09 04:10:44;;;;;;;19.60;18.00;;;;;;;;;;5028269;28;20508;-57
2023/09/09 04:13:09;;;;;;;57.55;53.58;;;;;;;;;;5019456;28;20034;-57
2023/09/09 04:15:37;;;;;;;54.03;49.67;;;;;;;;;;5025946;28;20025;-57
2023/09/09 04:18:02;;;;;;;35.08;32.15;;;;;;;;;;5014229;28;20034;-57
2023/09/09 04:20:27;;;;;;;21.10;19.35;;;;;;;;;;5014054;28;20374;-56
2023/09/09 04:22:52;;;;;;;90.13;83.13;;;;;;;;;;5025300;28;20021;-57
2023/09/09 04:25:18;;;;;;;90.07;83.87;;;;;;;;;;5022415;28;20079;-56
2023/09/09 04:27:43;;;;;;;83.23;77.73;;;;;;;;;;5015338;28;20041;-56
2023/09/09 04:30:09;;;;;;;49.75;45.97;;;;;;;;;;5017258;28;20550;-57
2023/09/09 04:32:34;;;;;;;85.28;79.05;;;;;;;;;;5018196;28;20091;-57
2023/09/09 04:34:59;;;;;;;59.90;55.92;;;;;;;;;;5020370;28;20099;-56
2023/09/09 04:37:27;;;;;;;30.33;27.65;;;;;;;;;;5022008;28;20453;-57
2023/09/09 04:39:52;;;;;;;32.50;30.05;;;;;;;;;;5012925;28;20022;-55
2023/09/09 04:42:18;;;;;;;22.13;20.33;;;;;;;;;;5019778;28;20044;-56
2023/09/09 04:44:43;;;;;;;33.30;30.98;;;;;;;;;;5017628;28;20485;-57
2023/09/09 04:47:09;;;;;;;86.93;81.07;;;;;;;;;;5017528;28;20037;-57
2023/09/09 04:49:34;;;;;;;49.42;45.85;;;;;;;;;;5021791;28;20110;-56
2023/09/09 04:51:59;;;;;;;37.33;34.53;;;;;;;;;;5023559;28;20390;-56
2023/09/09 04:54:25;;;;;;;21.58;19.63;;;;;;;;;;5019545;28;20045;-56
2023/09/09 04:56:50;;;;;;;17.77;16.27;;;;;;;;;;5015041;28;20029;-56
2023/09/09 04:59:15;;;;;;;17.17;15.57;;;;;;;;;;5015995;28;20435;-57
2023/09/09 05:01:40;;;;;;;82.55;76.80;;;;;;;;;;5027785;28;20126;-56
2023/09/09 05:04:05;;;;;;;54.70;50.77;;;;;;;;;;5016046;28;20018;-56
2023/09/09 05:06:31;;;;;;;74.13;68.70;;;;;;;;;;5012257;28;20053;-57
2023/09/09 05:08:56;;;;;;;55.70;51.65;;;;;;;;;;5023778;28;20037;-56
2023/09/09 05:11:21;;;;;;;63.63;59.13;;;;;;;;;;5012685;28;20089;-56
2023/09/09 05:13:46;;;;;;;50.87;47.13;;;;;;;;;;5019273;28;20026;-57
2023/09/09 05:16:11;;;;;;;27.37;25.27;;;;;;;;;;5020453;28;20029;-56
2023/09/09 05:18:37;;;;;;;104.87;97.20;;;;;;;;;;5020634;28;20507;-57
2023/09/09 05:21:02;;;;;;;72.33;66.50;;;;;;;;;;5011678;28;20108;-57
2023/09/09 05:23:27;;;;;;;96.93;90.27;;;;;;;;;;5012235;28;20021;-56
2023/09/09 05:25:52;;;;;;;129.17;119.83;;;;;;;;;;5023881;28;20029;-56
2023/09/09 05:28:17;;;;;;;30.63;28.27;;;;;;;;;;5015685;28;20099;-56
2023/09/09 05:30:42;;;;;;;69.53;64.03;;;;;;;;;;5017518;28;20409;-56
2023/09/09 05:33:08;;;;;;;98.03;91.10;;;;;;;;;;5016448;28;20075;-57
2023/09/09 05:35:33;;;;;;;25.70;23.70;;;;;;;;;;5028662;28;20034;-57
2023/09/09 05:37:58;;;;;;;72.63;67.77;;;;;;;;;;5014229;28;20041;-57
2023/09/09 05:40:23;;;;;;;37.40;35.00;;;;;;;;;;5011727;28;20487;-57
2023/09/09 05:42:48;;;;;;;97.93;91.07;;;;;;;;;;5024337;28;20479;-57
2023/09/09 05:45:14;;;;;;;68.33;63.53;;;;;;;;;;5012673;28;20092;-56
2023/09/09 05:47:39;;;;;;;40.50;37.65;;;;;;;;;;5014951;28;20048;-56
2023/09/09 05:50:05;;;;;;;62.33;57.97;;;;;;;;;;5015742;28;20100;-57
2023/09/09 05:52:30;;;;;;;29.05;26.75;;;;;;;;;;5015847;28;20028;-57
2023/09/09 05:54:55;;;;;;;91.70;85.33;;;;;;;;;;5015706;28;20022;-57
2023/09/09 05:57:21;;;;;;;72.67;67.63;;;;;;;;;;5022829;28;20025;-57
2023/09/09 05:59:46;;;;;;;33.77;31.47;;;;;;;;;;5019821;28;20026;-57
2023/09/09 06:02:11;;;;;;;137.67;127.87;;;;;;;;;;5016122;28;20055;-56
2023/09/09 06:04:36;;;;;;;91.37;84.83;;;;;;;;;;5013493;28;20504;-56
2023/09/09 06:07:02;;;;;;;95.67;88.27;;;;;;;;;;5013038;28;20038;-57
2023/09/09 06:09:27;;;;;;;113.82;105.90;;;;;;;;;;5014490;28;20052;-57
2023/09/09 06:11:52;;;;;;;84.23;78.23;;;;;;;;;;5025115;28;20037;-56
2023/09/09 06:14:17;;;;;;;27.30;25.27;;;;;;;;;;5013107;28;20561;-57
2023/09/09 06:16:43;;;;;;;59.45;55.03;;;;;;;;;;5013092;28;20493;-58
2023/09/09 06:19:08;;;;;;;81.70;75.72;;;;;;;;;;5010741;28;20033;-57
2023/09/09 06:21:33;;;;;;;29.43;27.20;;;;;;;;;;5015882;28;20083;-59
2023/09/09 06:23:58;;;;;;;39.77;36.67;;;;;;;;;;5020739;28;20092;-59
2023/09/09 06:26:23;;;;;;;105.73;98.03;;;;;;;;;;5021452;28;20386;-58
2023/09/09 06:28:49;;;;;;;111.20;103.05;;;;;;;;;;5012357;28;20405;-58
2023/09/09 06:31:14;;;;;;;42.47;39.55;;;;;;;;;;5010025;28;20397;-58
2023/09/09 06:33:39;;;;;;;76.90;70.90;;;;;;;;;;5018006;28;20100;-58
2023/09/09 06:36:04;;;;;;;115.20;106.73;;;;;;;;;;5023997;28;20188;-57
2023/09/09 06:38:29;;;;;;;142.40;131.73;;;;;;;;;;5012929;28;20037;-58
2023/09/09 06:40:54;;;;;;;132.82;123.30;;;;;;;;;;5018621;28;20033;-57
2023/09/09 06:43:20;;;;;;;185.40;172.10;;;;;;;;;;5015860;28;20033;-57
2023/09/09 06:45:46;;;;;;;101.30;94.03;;;;;;;;;;5024923;28;20017;-57
2023/09/09 06:48:16;;;;;;;131.25;121.30;;;;;;;;;;5012483;28;20540;-58
2023/09/09 06:50:42;;;;;;;60.92;56.97;;;;;;;;;;5013263;28;20026;-56
2023/09/09 06:53:07;;;;;;;77.33;71.23;;;;;;;;;;5012707;28;20022;-57
2023/09/09 06:55:32;;;;;;;138.15;126.75;;;;;;;;;;5017107;28;20025;-57
2023/09/09 06:57:57;;;;;;;179.30;165.93;;;;;;;;;;5020764;28;20025;-57
2023/09/09 07:00:23;;;;;;;54.63;50.97;;;;;;;;;;5010723;28;20018;-57
2023/09/09 07:02:48;;;;;;;91.15;84.22;;;;;;;;;;5013666;28;20033;-57
2023/09/09 07:05:17;;;;;;;112.20;103.27;;;;;;;;;;5011185;28;20052;-57
2023/09/09 07:07:42;;;;;;;53.95;50.28;;;;;;;;;;5016712;28;20029;-57
2023/09/09 07:10:08;;;;;;;227.33;209.73;;;;;;;;;;5022290;28;20014;-57
2023/09/09 07:12:33;;;;;;;;;;;;;;;;;;5014104;28;20539;-57
2023/09/09 07:14:58;;;;;;;100.95;93.97;;;;;;;;;;5015738;28;20039;-57
2023/09/09 07:17:24;;;;;;;107.57;100.37;;;;;;;;;;5021055;28;20021;-58
2023/09/09 07:19:49;;;;;;;122.78;113.85;;;;;;;;;;5018199;28;20485;-57
2023/09/09 07:22:14;;;;;;;60.10;55.40;;;;;;;;;;5016480;28;20078;-56
2023/09/09 07:24:39;;;;;;;130.50;119.43;;;;;;;;;;5023269;28;20504;-57
2023/09/09 07:27:04;;;;;;;139.20;129.00;;;;;;;;;;5015551;28;20033;-57
2023/09/09 07:29:30;;;;;;;87.87;82.00;;;;;;;;;;5013274;28;20431;-56
2023/09/09 07:31:55;;;;;;;224.20;208.85;;;;;;;;;;5010422;28;20030;-57
2023/09/09 07:34:20;;;;;;;97.45;86.68;;;;;;;;;;5016384;28;20025;-56
2023/09/09 07:36:46;;;;;;;182.77;169.33;;;;;;;;;;5030215;28;20097;-57
2023/09/09 07:39:11;;;;;;;155.03;141.87;;;;;;;;;;5021641;28;20476;-57
2023/09/09 07:41:36;;;;;;;73.72;67.78;;;;;;;;;;5015519;28;20022;-57
2023/09/09 07:44:02;;;;;;;141.60;129.80;;;;;;;;;;5022435;28;20089;-57
2023/09/09 07:46:28;;;;;;;113.57;105.20;;;;;;;;;;5024947;28;20476;-56
2023/09/09 07:48:53;;;;;;;267.05;248.05;;;;;;;;;;5017443;28;20438;-56
2023/09/09 07:51:20;;;;;;;;;;;;;;;;;;5030948;28;20048;-57
2023/09/09 07:53:45;;;;;;;164.38;153.18;;;;;;;;;;5015769;28;20361;-57
2023/09/09 07:56:11;;;;;;;136.67;124.17;;;;;;;;;;5016717;28;20026;-57
2023/09/09 07:58:36;;;;;;;;;;;;;;;;;;5019889;28;20387;-57
2023/09/09 08:01:03;;;;;;;265.02;244.70;;;;;;;;;;5021737;28;19978;-57
2023/09/09 08:03:29;;;;;;;221.75;206.15;;;;;;;;;;5022648;28;20026;-56
2023/09/09 08:05:55;;;;;;;293.10;264.92;;;;;;;;;;5020976;28;20034;-57
2023/09/09 08:08:21;;;;;;;215.50;196.07;;;;;;;;;;5019710;28;20028;-56
2023/09/09 08:10:46;;;;;;;246.33;227.73;;;;;;;;;;5025010;28;20026;-57
2023/09/09 08:13:11;;;;;;;112.50;102.30;;;;;;;;;;5018956;28;20092;-57
2023/09/09 08:15:36;;;;;;;;;;;;;;;;;;5025454;28;20034;-56
2023/09/09 08:18:02;;;;;;;278.90;257.00;;;;;;;;;;5014064;28;19913;-57
2023/09/09 08:20:28;;;;;;;243.70;223.82;;;;;;;;;;5022121;28;20021;-56
2023/09/09 08:22:53;;;;;;;;;;;;;;;;;;5024805;28;20488;-57
2023/09/09 08:25:18;;;;;;;280.58;252.82;;;;;;;;;;5026224;28;20004;-58
2023/09/09 08:27:43;;;;;;;172.50;158.47;;;;;;;;;;5021596;28;20033;-56
2023/09/09 08:30:08;;;;;;;;;;;;;;;;;;5016501;28;20030;-57
2023/09/09 08:32:34;;;;;;;329.20;300.83;;;;;;;;;;5023599;28;19929;-57
2023/09/09 08:34:59;;;;;;;;;;;;;;;;;;5019668;28;20588;-57
2023/09/09 08:37:25;;;;;;;328.67;300.20;;;;;;;;;;5013730;28;19910;-57
2023/09/09 08:39:50;;;;;;;;;;;;;;;;;;5021006;28;20068;-56
2023/09/09 08:42:19;;;;;;;246.77;227.82;;;;;;;;;;5022705;28;19929;-56
2023/09/09 08:44:54;;;;;;;299.45;274.23;;;;;;;;;;5027629;28;20026;-56
2023/09/09 08:47:20;;;;;;;219.45;200.52;;;;;;;;;;5022912;28;20036;-56
2023/09/09 08:49:46;;;;;;;;;;;;;;;;;;5025266;28;20442;-56
2023/09/09 08:52:16;;;;;;;321.73;293.27;;;;;;;;;;5023916;28;19913;-55
2023/09/09 08:54:41;;;;;;;287.05;260.17;;;;;;;;;;5024028;28;20089;-56
2023/09/09 08:57:06;;;;;;;;;;;;;;;;;;5021591;28;20052;-56
2023/09/09 08:59:32;;;;;;;259.50;239.40;;;;;;;;;;5021553;28;19966;-56
2023/09/09 09:01:57;;;;;;;;;;;;;;;;;;5012695;28;20094;-55
2023/09/09 09:04:23;;;;;;;262.58;242.52;;;;;;;;;;5027723;28;20403;-56
2023/09/09 09:06:48;;;;;;;310.40;283.40;;;;;;;;;;5024764;28;20065;-57
2023/09/09 09:09:17;;;;;;;260.60;237.37;;;;;;;;;;5018538;28;20033;-56
2023/09/09 09:11:42;;;;;;;297.10;272.35;;;;;;;;;;5028700;28;20159;-56
2023/09/09 09:14:08;;;;;;;;;;;;;;;;;;5028715;28;20092;-56
2023/09/09 09:16:36;;;;;;;293.05;233.07;;;;;;;;;;5020392;28;19909;-56
2023/09/09 09:19:02;;;;;;;221.18;201.95;;;;;;;;;;5011425;28;20148;-56
2023/09/09 09:21:31;;;;;;;246.10;227.00;;;;;;;;;;5019914;28;20032;-56
2023/09/09 09:23:57;;;;;;;449.25;400.55;;;;;;;;;;5021938;28;20484;-57
2023/09/09 09:26:27;;;;;;;236.07;216.23;;;;;;;;;;5026833;28;20547;-57
2023/09/09 09:28:52;;;;;;;298.85;273.17;;;;;;;;;;5030873;28;20104;-56
2023/09/09 09:31:21;;;;;;;350.10;321.00;;;;;;;;;;5021733;28;20108;-57
2023/09/09 09:33:47;;;;;;;379.55;346.20;;;;;;;;;;5031776;28;20574;-57
2023/09/09 09:36:12;;;;;;;;;;;;;;;;;;5032361;28;20029;-56
2023/09/09 09:38:37;;;;;;;289.60;265.77;;;;;;;;;;5023136;28;20007;-57
2023/09/09 09:41:03;;;;;;;;;;;;;;;;;;5020125;28;20377;-56
2023/09/09 09:43:30;;;;;;;381.80;352.52;;;;;;;;;;5011875;28;19909;-56
2023/09/09 09:46:11;;;;;;;357.42;325.50;;;;;;;;;;5023059;28;20041;-55
2023/09/09 09:48:36;;;;;;;290.33;268.05;;;;;;;;;;5019828;28;20666;-56
2023/09/09 09:51:02;;;;;;;250.63;228.13;;;;;;;;;;5011679;28;20029;-55
2023/09/09 09:53:28;;;;;;;;;;;;;;;;;;5012944;28;20017;-55
2023/09/09 09:55:55;;;;;;;406.55;373.88;;;;;;;;;;5017210;28;19909;-55
2023/09/09 09:58:21;;;;;;;301.10;274.90;;;;;;;;;;5024772;28;20064;-55
2023/09/09 10:00:47;;;;;;;471.08;424.88;;;;;;;;;;5021736;28;20061;-56
2023/09/09 10:03:13;;;;;;;228.65;211.18;;;;;;;;;;5019243;28;20563;-56
2023/09/09 10:05:39;;;;;;;304.50;273.45;;;;;;;;;;5017801;28;20037;-57
2023/09/09 10:08:05;;;;;;;278.92;255.98;;;;;;;;;;5026132;28;20024;-57
2023/09/09 10:10:31;;;;;;;404.15;365.23;;;;;;;;;;5025847;28;20032;-56
2023/09/09 10:12:56;;;;;;;434.95;395.65;;;;;;;;;;5018280;28;20054;-56
2023/09/09 10:15:22;;;;;;;396.65;364.52;;;;;;;;;;5018334;28;20072;-56
2023/09/09 10:17:47;;;;;;;;;;;;;;;;;;5025332;28;20029;-57
2023/09/09 10:20:13;;;;;;;384.93;345.80;;;;;;;;;;5022856;28;19925;-57
2023/09/09 10:22:38;;;;;;;;;;;;;;;;;;5031797;28;20044;-57
2023/09/09 10:25:04;;;;;;;354.52;325.08;;;;;;;;;;5023145;28;19905;-56
2023/09/09 10:27:29;;;;;;;338.20;304.92;;;;;;;;;;5022832;28;20428;-57
2023/09/09 10:29:54;;;;;;;;;;;;;;;;;;5029528;28;20496;-57
2023/09/09 10:32:20;;;;;;;325.75;297.95;;;;;;;;;;5020478;28;19913;-57
2023/09/09 10:34:45;;;;;;;;;;;;;;;;;;5028371;28;20481;-57
2023/09/09 10:37:10;;;;;;;445.08;404.67;;;;;;;;;;5029543;28;19921;-57
2023/09/09 10:39:37;;;;;;;497.27;445.38;;;;;;;;;;5022114;28;20437;-57
2023/09/09 10:42:03;;;;;;;407.88;368.60;;;;;;;;;;5011655;28;20438;-57
2023/09/09 10:44:28;;;;;;;385.10;349.60;;;;;;;;;;5010757;28;20056;-55
2023/09/09 10:46:54;;;;;;;;;;;;;;;;;;5018965;28;20065;-56
2023/09/09 10:49:22;;;;;;;527.58;455.88;;;;;;;;;;5017275;28;19912;-55
2023/09/09 10:51:49;;;;;;;481.10;436.50;;;;;;;;;;5018662;28;20100;-56
2023/09/09 10:54:18;;;;;;;513.25;468.08;;;;;;;;;;5020676;28;20025;-55
2023/09/09 10:56:47;;;;;;;333.40;302.10;;;;;;;;;;5031422;28;20017;-56
2023/09/09 10:59:17;;;;;;;436.70;395.25;;;;;;;;;;5028950;28;20068;-56
2023/09/09 11:01:42;;;;;;;386.10;352.05;;;;;;;;;;5026178;28;20021;-56
2023/09/09 11:04:07;;;;;;;;;;;;;;;;;;5023916;28;20017;-56
2023/09/09 11:06:33;;;;;;;659.00;416.85;;;;;;;;;;5030900;28;19968;-55
2023/09/09 11:08:59;;;;;;;;;;;;;;;;;;5030617;28;20025;-56
2023/09/09 11:11:26;;;;;;;365.33;332.95;;;;;;;;;;5027843;28;20380;-57
2023/09/09 11:13:57;;;;;;;460.70;419.00;;;;;;;;;;5027141;28;20033;-56
2023/09/09 11:16:43;;;;;;;443.67;401.48;;;;;;;;;;5029613;28;20564;-56
2023/09/09 11:19:08;;;;;;;478.55;433.00;;;;;;;;;;5024303;28;20057;-57
2023/09/09 11:21:36;;;;;;;424.48;384.63;;;;;;;;;;5014428;28;20046;-56
2023/09/09 11:24:02;;;;;;;459.67;418.42;;;;;;;;;;5014144;28;20018;-56
2023/09/09 11:26:27;;;;;;;;;;;;;;;;;;5014877;28;20029;-57
2023/09/09 11:28:53;;;;;;;359.57;328.07;;;;;;;;;;5013981;28;19912;-56
2023/09/09 11:31:18;;;;;;;;;;;;;;;;;;5018004;28;20113;-56
2023/09/09 11:33:43;;;;;;;470.38;423.63;;;;;;;;;;5020935;28;19909;-57
2023/09/09 11:36:08;;;;;;;;;;;;;;;;;;5015305;28;20026;-56
2023/09/09 11:38:40;;;;;;;353.42;321.70;;;;;;;;;;5013881;28;20005;-57
2023/09/09 11:41:05;;;;;;;357.38;329.10;;;;;;;;;;5014075;28;20021;-56
2023/09/09 11:43:30;;;;;;;;;;;;;;;;;;5015719;28;20026;-55
2023/09/09 11:45:56;;;;;;;444.92;404.83;;;;;;;;;;5023247;28;19909;-56
2023/09/09 11:48:21;;;;;;;;;;;;;;;;;;5027717;28;20488;-56
2023/09/09 11:50:47;;;;;;;453.85;410.88;;;;;;;;;;5033038;28;19912;-56
2023/09/09 11:53:12;;;;;;;379.45;348.90;;;;;;;;;;5029857;28;20010;-56
2023/09/09 11:55:38;;;;;;;;;;;;;;;;;;5024090;28;20048;-56
2023/09/09 11:58:03;;;;;;;548.22;501.23;;;;;;;;;;5030212;28;19909;-56
2023/09/09 12:00:28;;;;;;;;;;;;;;;;;;5032673;28;20109;-56
2023/09/09 12:02:53;;;;;;;327.85;296.10;;;;;;;;;;5025143;28;19912;-57
2023/09/09 12:05:19;;;;;;;414.27;377.87;;;;;;;;;;5033347;28;20025;-56
2023/09/09 12:07:44;;;;;;;;;;;;;;;;;;5033654;28;20561;-56
2023/09/09 12:10:14;;;;;;;359.80;322.13;;;;;;;;;;5032829;28;19909;-56
2023/09/09 12:12:40;;;;;;;577.78;516.90;;;;;;;;;;5032635;28;20073;-55
2023/09/09 12:15:05;;;;;;;;;;;;;;;;;;5021436;28;20037;-56
2023/09/09 12:17:30;;;;;;;325.02;293.73;;;;;;;;;;5013539;28;20051;-55
2023/09/09 12:19:55;;;;;;;;;;;;;;;;;;5024669;28;20045;-57
2023/09/09 12:22:33;;;;;;;485.67;440.15;;;;;;;;;;5021166;28;20007;-57
2023/09/09 12:24:59;;;;;;;357.52;327.25;;;;;;;;;;5012616;28;20017;-56
2023/09/09 12:27:24;;;;;;;;;;;;;;;;;;5033311;28;20201;-56
2023/09/09 12:29:49;;;;;;;497.00;448.27;;;;;;;;;;5021785;28;19936;-57
2023/09/09 12:32:14;;;;;;;;;;;;;;;;;;5013587;28;20041;-56
2023/09/09 12:34:42;;;;;;;534.20;481.87;;;;;;;;;;5013193;28;19987;-56
2023/09/09 12:37:08;;;;;;;446.42;408.90;;;;;;;;;;5013183;28;20010;-56
2023/09/09 12:39:33;;;;;;;;;;;;;;;;;;5013073;28;20041;-56
2023/09/09 12:42:02;;;;;;;490.77;438.40;;;;;;;;;;5013408;28;19963;-57
2023/09/09 12:44:29;;;;;;;521.35;471.80;;;;;;;;;;5024333;28;20033;-57
2023/09/09 12:46:54;;;;;;;489.63;441.17;;;;;;;;;;5014845;28;20033;-57
2023/09/09 12:49:20;;;;;;;;;;;;;;;;;;5012796;28;20044;-55
2023/09/09 12:51:45;;;;;;;315.00;287.55;;;;;;;;;;5014522;28;19905;-57
2023/09/09 12:54:10;;;;;;;548.13;494.13;;;;;;;;;;5031211;28;20083;-57
2023/09/09 12:56:35;;;;;;;;;;;;;;;;;;5032579;28;20036;-55
2023/09/09 12:59:00;;;;;;;439.15;393.33;;;;;;;;;;5020845;28;19913;-56
2023/09/09 13:01:25;;;;;;;;;;;;;;;;;;5025971;28;20022;-56
2023/09/09 13:03:50;;;;;;;358.40;325.88;;;;;;;;;;5024086;28;19963;-57
2023/09/09 13:06:16;;;;;;;;;;;;;;;;;;5032905;28;20469;-57
2023/09/09 13:08:41;;;;;;;456.85;417.38;;;;;;;;;;5032475;28;19916;-56
2023/09/09 13:11:06;;;;;;;444.87;400.67;;;;;;;;;;5030903;28;20025;-57
2023/09/09 13:13:31;;;;;;;;;;;;;;;;;;5021595;28;20105;-56
2023/09/09 13:15:56;;;;;;;564.83;501.88;;;;;;;;;;5030350;28;19945;-57
2023/09/09 13:18:22;;;;;;;;;;;;;;;;;;5032250;28;20028;-56
2023/09/09 13:20:47;;;;;;;578.30;518.92;;;;;;;;;;5031452;28;20051;-56
2023/09/09 13:23:12;;;;;;;;;;;;;;;;;;5029245;28;20538;-55
2023/09/09 13:25:38;;;;;;;544.90;495.58;;;;;;;;;;5030892;28;20283;-54
2023/09/09 13:28:03;;;;;;;;;;;;;;;;;;5020630;28;20025;-55
2023/09/09 13:30:28;;;;;;;507.73;460.50;;;;;;;;;;5019510;28;19932;-55
2023/09/09 13:32:53;;;;;;;;;;;;;;;;;;5012301;28;20421;-55
2023/09/09 13:35:18;;;;;;;417.13;378.67;;;;;;;;;;5012084;28;19906;-54
2023/09/09 13:37:43;;;;;;;;;;;;;;;;;;5012206;28;20300;-55
2023/09/09 13:40:09;;;;;;;528.65;479.48;;;;;;;;;;5016362;28;19909;-55
2023/09/09 13:42:34;;;;;;;;;;;;;;;;;;5020590;28;20052;-55
2023/09/09 13:44:59;;;;;;;478.17;431.80;;;;;;;;;;5011687;28;19909;-55
2023/09/09 13:47:24;;;;;;;;;;;;;;;;;;5012022;28;20125;-55
2023/09/09 13:49:49;;;;;;;531.33;480.25;;;;;;;;;;5011151;28;20009;-55
2023/09/09 13:52:14;;;;;;;;;;;;;;;;;;5027729;28;20021;-55
2023/09/09 13:54:39;;;;;;;488.27;446.45;;;;;;;;;;5026109;28;19909;-55
2023/09/09 13:57:06;;;;;;;;;;;;;;;;;;5023336;28;20013;-56
2023/09/09 13:59:31;;;;;;;453.40;415.85;;;;;;;;;;5030930;28;19916;-55
2023/09/09 14:01:56;;;;;;;;;;;;;;;;;;5032367;28;20547;-56
2023/09/09 14:04:21;;;;;;;551.93;500.57;;;;;;;;;;5031329;28;19967;-55
2023/09/09 14:06:46;;;;;;;536.07;488.77;;;;;;;;;;5031148;28;20394;-56
2023/09/09 14:09:12;;;;;;;488.23;442.63;;;;;;;;;;5025955;28;20029;-56
2023/09/09 14:11:37;;;;;;;565.77;482.60;;;;;;;;;;5019009;28;20026;-57
2023/09/09 14:14:02;;;;;;;502.50;454.88;;;;;;;;;;5011203;28;20021;-57
2023/09/09 14:16:27;;;;;;;542.23;483.33;;;;;;;;;;5011423;28;20079;-57